Time;durP1;ratioP1;P1;durP2;ratioP2;P2;SDS_P1;SDS_P2;PMS_P1;PMS_P2;Temp;Humidity;BMP_temperature;BMP_pressure;BME280_temperature;BME280_humidity;BME280_pressure;Samples;Min_cycle;Max_cycle;Signal;HPM_P1;HPM_P2
2021/04/18 00:00:53;;;;;;;3.50;3.17;;;;;21.30;101145.00;;;;2074487;28;20215;-47
2021/04/18 00:01:54;;;;;;;3.10;2.80;;;;;21.30;101137.00;;;;2076898;28;20272;-47
2021/04/18 00:02:54;;;;;;;4.97;3.13;;;;;21.30;101143.00;;;;2076930;28;20227;-48
2021/04/18 00:03:55;;;;;;;4.27;3.20;;;;;21.30;101147.00;;;;2077077;28;20218;-47
2021/04/18 00:04:55;;;;;;;4.20;3.10;;;;;21.30;101144.00;;;;2076554;28;20223;-47
2021/04/18 00:05:55;;;;;;;3.60;2.63;;;;;21.30;101145.00;;;;2075910;28;20261;-47
2021/04/18 00:06:56;;;;;;;4.17;2.90;;;;;21.20;101139.00;;;;2077533;28;20272;-48
2021/04/18 00:08:02;;;;;;;4.20;3.00;;;;;21.20;101140.00;;;;2073264;28;20883;-47
2021/04/18 00:09:04;;;;;;;3.72;3.28;;;;;21.20;101141.00;;;;2069214;28;20242;-47
2021/04/18 00:10:06;;;;;;;4.47;3.38;;;;;21.20;101139.00;;;;2067495;28;20815;-47
2021/04/18 00:11:06;;;;;;;3.45;2.90;;;;;21.20;101143.00;;;;2069547;28;20246;-47
2021/04/18 00:12:07;;;;;;;4.80;3.17;;;;;21.20;101142.00;;;;2068929;28;20222;-47
2021/04/18 00:13:09;;;;;;;4.70;3.00;;;;;21.20;101148.00;;;;2068608;28;20284;-46
2021/04/18 00:14:09;;;;;;;4.35;3.22;;;;;21.20;101151.00;;;;2073491;28;20210;-47
2021/04/18 00:15:11;;;;;;;3.50;2.90;;;;;21.20;101150.00;;;;2074733;28;20222;-47
2021/04/18 00:16:12;;;;;;;5.88;3.42;;;;;21.20;101138.00;;;;2076132;28;20237;-47
2021/04/18 00:17:12;;;;;;;5.93;3.53;;;;;21.20;101142.00;;;;2077656;28;20734;-47
2021/04/18 00:18:14;;;;;;;3.23;2.93;;;;;21.20;101143.00;;;;2077291;28;20325;-47
2021/04/18 00:19:15;;;;;;;2.75;2.35;;;;;21.20;101147.00;;;;2077541;28;20218;-47
2021/04/18 00:20:15;;;;;;;3.10;2.80;;;;;21.10;101145.00;;;;2074358;28;20264;-47
2021/04/18 00:21:16;;;;;;;4.53;2.93;;;;;21.20;101159.00;;;;2077569;28;20237;-47
2021/04/18 00:22:16;;;;;;;2.70;2.50;;;;;21.10;101138.00;;;;2073720;28;20969;-47
2021/04/18 00:23:16;;;;;;;4.00;2.90;;;;;21.20;101136.00;;;;2068911;28;20672;-47
2021/04/18 00:24:17;;;;;;;3.57;3.10;;;;;21.20;101135.00;;;;2072472;28;20213;-46
2021/04/18 00:25:18;;;;;;;3.63;3.30;;;;;21.20;101133.00;;;;2068129;28;20216;-47
2021/04/18 00:26:19;;;;;;;3.17;2.80;;;;;21.10;101129.00;;;;2068096;28;20211;-46
2021/04/18 00:27:19;;;;;;;3.80;3.03;;;;;21.10;101138.00;;;;2069183;28;20231;-46
2021/04/18 00:28:20;;;;;;;4.80;2.93;;;;;21.10;101135.00;;;;2069324;28;20227;-46
2021/04/18 00:29:20;;;;;;;4.17;3.20;;;;;21.10;101145.00;;;;2069439;28;20211;-47
2021/04/18 00:30:21;;;;;;;4.20;2.67;;;;;21.10;101133.00;;;;2069202;28;20303;-46
2021/04/18 00:31:22;;;;;;;3.83;2.40;;;;;21.10;101140.00;;;;2068720;28;20564;-46
2021/04/18 00:32:22;;;;;;;3.80;3.20;;;;;21.10;101135.00;;;;2069350;28;25553;-47
2021/04/18 00:33:22;;;;;;;3.20;2.90;;;;;21.10;101150.00;;;;2069487;28;20234;-47
2021/04/18 00:34:23;;;;;;;3.60;2.90;;;;;21.10;101127.00;;;;2069190;28;20227;-47
2021/04/18 00:35:23;;;;;;;3.23;2.83;;;;;21.10;101133.00;;;;2066705;28;20586;-47
2021/04/18 00:36:24;;;;;;;3.77;2.57;;;;;21.10;101129.00;;;;2067818;28;20234;-46
2021/04/18 00:37:24;;;;;;;3.17;2.63;;;;;21.10;101132.00;;;;2069294;28;20232;-47
2021/04/18 00:38:24;;;;;;;3.20;2.60;;;;;21.10;101128.00;;;;2069211;28;20231;-46
2021/04/18 00:39:25;;;;;;;3.57;2.87;;;;;21.10;101130.00;;;;2069448;28;20638;-46
2021/04/18 00:40:25;;;;;;;4.10;2.67;;;;;21.10;101118.00;;;;2061958;28;20270;-47
2021/04/18 00:41:26;;;;;;;3.60;2.93;;;;;21.10;101130.00;;;;2069106;28;20314;-47
2021/04/18 00:42:26;;;;;;;3.70;2.57;;;;;21.10;101126.00;;;;2069059;28;20223;-47
2021/04/18 00:43:26;;;;;;;3.03;2.73;;;;;21.10;101125.00;;;;2069279;28;20220;-47
2021/04/18 00:44:27;;;;;;;2.90;2.30;;;;;21.00;101126.00;;;;2068885;28;20298;-47
2021/04/18 00:45:27;;;;;;;2.93;2.63;;;;;21.10;101122.00;;;;2069238;28;20214;-48
2021/04/18 00:46:28;;;;;;;3.47;2.63;;;;;21.00;101116.00;;;;2068110;28;20703;-47
2021/04/18 00:47:28;;;;;;;3.50;2.53;;;;;21.00;101119.00;;;;2069156;28;20254;-46
2021/04/18 00:48:29;;;;;;;3.17;2.63;;;;;21.00;101116.00;;;;2068882;28;20226;-47
2021/04/18 00:49:29;;;;;;;4.00;2.90;;;;;21.00;101115.00;;;;2068719;28;20222;-47
2021/04/18 00:50:35;;;;;;;3.27;2.80;;;;;21.00;101112.00;;;;2067366;28;20226;-47
2021/04/18 00:51:35;;;;;;;3.88;2.72;;;;;21.00;101107.00;;;;2069489;28;20223;-48
2021/04/18 00:52:36;;;;;;;2.97;2.67;;;;;21.00;101111.00;;;;2072930;28;20729;-47
2021/04/18 00:53:36;;;;;;;2.83;2.50;;;;;21.00;101108.00;;;;2072455;28;20266;-47
2021/04/18 00:54:37;;;;;;;5.10;2.50;;;;;21.00;101108.00;;;;2071538;28;20289;-47
2021/04/18 00:55:41;;;;;;;3.50;2.40;;;;;21.00;101108.00;;;;2064614;28;20595;-47
2021/04/18 00:56:41;;;;;;;3.35;2.70;;;;;21.00;101113.00;;;;2066148;28;20726;-47
2021/04/18 00:57:42;;;;;;;3.83;2.37;;;;;21.00;101116.00;;;;2068919;28;20212;-47
2021/04/18 00:58:42;;;;;;;2.80;2.40;;;;;21.00;101107.00;;;;2068304;28;20946;-47
2021/04/18 00:59:42;;;;;;;4.10;3.27;;;;;21.00;101110.00;;;;2068573;28;20279;-47
2021/04/18 01:00:43;;;;;;;3.70;2.57;;;;;21.00;101106.00;;;;2064423;28;20241;-46
2021/04/18 01:01:43;;;;;;;3.33;2.80;;;;;21.00;101119.00;;;;2067476;28;20234;-47
2021/04/18 01:02:43;;;;;;;3.33;2.60;;;;;21.00;101104.00;;;;2068971;28;20215;-46
2021/04/18 01:03:44;;;;;;;2.90;2.60;;;;;21.00;101112.00;;;;2069294;28;20299;-46
2021/04/18 01:04:44;;;;;;;3.80;2.33;;;;;21.00;101111.00;;;;2069140;28;20223;-46
2021/04/18 01:05:44;;;;;;;3.17;2.87;;;;;21.00;101112.00;;;;2066768;28;20218;-46
2021/04/18 01:06:45;;;;;;;3.20;2.40;;;;;20.80;101108.00;;;;2068041;28;20215;-47
2021/04/18 01:07:45;;;;;;;3.73;2.63;;;;;21.00;101109.00;;;;2072158;28;20222;-47
2021/04/18 01:08:46;;;;;;;4.80;2.83;;;;;21.00;101107.00;;;;2069351;28;20307;-47
2021/04/18 01:09:46;;;;;;;2.87;2.63;;;;;21.00;101109.00;;;;2069264;28;20218;-47
2021/04/18 01:10:47;;;;;;;4.30;3.00;;;;;20.90;101107.00;;;;2064418;28;20214;-47
2021/04/18 01:11:47;;;;;;;3.70;3.30;;;;;21.00;101110.00;;;;2068231;28;20222;-47
2021/04/18 01:12:47;;;;;;;3.40;2.83;;;;;20.90;101111.00;;;;2068341;28;20223;-47
2021/04/18 01:13:48;;;;;;;3.10;2.80;;;;;20.90;101110.00;;;;2070134;28;20733;-47
2021/04/18 01:14:48;;;;;;;2.63;2.40;;;;;20.90;101114.00;;;;2070074;28;20325;-47
2021/04/18 01:15:49;;;;;;;3.30;2.90;;;;;20.90;101118.00;;;;2070796;28;20227;-47
2021/04/18 01:16:50;;;;;;;3.53;2.67;;;;;20.90;101110.00;;;;2076826;28;20214;-47
2021/04/18 01:17:50;;;;;;;3.90;3.30;;;;;20.90;101111.00;;;;2078839;28;20675;-47
2021/04/18 01:18:50;;;;;;;2.63;2.40;;;;;20.90;101114.00;;;;2078790;28;20750;-47
2021/04/18 01:19:51;;;;;;;2.60;2.40;;;;;20.90;101117.00;;;;2078806;28;20256;-46
2021/04/18 01:21:07;;;;;;;3.03;2.67;;;;;20.90;101106.00;;;;2073412;28;20226;-47
2021/04/18 01:22:08;;;;;;;3.45;2.70;;;;;20.90;101108.00;;;;2077962;28;20970;-46
2021/04/18 01:23:08;;;;;;;2.60;2.40;;;;;20.90;101108.00;;;;2073084;28;20322;-47
2021/04/18 01:24:08;;;;;;;3.00;2.70;;;;;20.90;101110.00;;;;2074285;28;20726;-46
2021/04/18 01:25:10;;;;;;;3.00;2.70;;;;;20.90;101106.00;;;;2070589;28;20304;-46
2021/04/18 01:26:10;;;;;;;3.40;2.72;;;;;20.90;101115.00;;;;2069009;28;20223;-46
2021/04/18 01:27:11;;;;;;;3.13;2.63;;;;;20.90;101112.00;;;;2070008;28;20875;-46
2021/04/18 01:28:12;;;;;;;3.10;2.80;;;;;20.90;101105.00;;;;2070488;28;20210;-48
2021/04/18 01:29:12;;;;;;;3.30;3.00;;;;;20.90;101113.00;;;;2069875;28;20950;-47
2021/04/18 01:30:19;;;;;;;3.00;2.70;;;;;20.90;101102.00;;;;2069861;28;20217;-46
2021/04/18 01:31:19;;;;;;;3.08;2.80;;;;;20.90;101110.00;;;;2070121;28;20737;-46
2021/04/18 01:32:20;;;;;;;3.80;3.20;;;;;20.90;101110.00;;;;2070454;28;20210;-47
2021/04/18 01:33:21;;;;;;;2.90;2.60;;;;;20.90;101100.00;;;;2070374;28;20215;-46
2021/04/18 01:34:21;;;;;;;3.63;2.93;;;;;20.90;101110.00;;;;2070503;28;20218;-47
2021/04/18 01:35:22;;;;;;;3.63;2.80;;;;;20.90;101104.00;;;;2069493;28;20862;-46
2021/04/18 01:36:22;;;;;;;4.00;2.90;;;;;20.90;101101.00;;;;2068389;28;20699;-47
2021/04/18 01:37:22;;;;;;;3.83;2.80;;;;;20.90;101096.00;;;;2070658;28;20223;-47
2021/04/18 01:38:23;;;;;;;2.63;2.40;;;;;20.90;101099.00;;;;2068109;28;20234;-47
2021/04/18 01:39:23;;;;;;;3.13;2.83;;;;;20.80;101100.00;;;;2070025;28;20227;-47
2021/04/18 01:40:24;;;;;;;3.00;2.70;;;;;20.80;101101.00;;;;2069234;28;20251;-46
2021/04/18 01:41:25;;;;;;;3.22;2.92;;;;;20.80;101091.00;;;;2070384;28;20292;-47
2021/04/18 01:42:25;;;;;;;3.13;2.90;;;;;20.80;101088.00;;;;2069760;28;20274;-47
2021/04/18 01:43:25;;;;;;;3.50;3.10;;;;;20.80;101088.00;;;;2061818;28;20948;-48
2021/04/18 01:44:26;;;;;;;3.33;3.03;;;;;20.80;101086.00;;;;2069294;28;20214;-47
2021/04/18 01:45:27;;;;;;;2.87;2.60;;;;;20.80;101094.00;;;;2070528;28;20419;-46
2021/04/18 01:46:27;;;;;;;3.30;3.00;;;;;20.80;101089.00;;;;2068343;28;20218;-47
2021/04/18 01:47:28;;;;;;;4.50;3.50;;;;;20.80;101090.00;;;;2069586;28;20882;-47
2021/04/18 01:48:28;;;;;;;3.47;3.17;;;;;20.80;101085.00;;;;2070317;28;20223;-47
2021/04/18 01:49:28;;;;;;;6.47;3.20;;;;;20.80;101090.00;;;;2070466;28;20216;-48
2021/04/18 01:50:31;;;;;;;4.27;3.30;;;;;20.80;101088.00;;;;2070173;28;20773;-46
2021/04/18 01:51:31;;;;;;;4.03;3.40;;;;;20.80;101085.00;;;;2061407;28;20575;-47
2021/04/18 01:52:32;;;;;;;3.20;2.87;;;;;20.80;101091.00;;;;2064266;28;20707;-46
2021/04/18 01:53:32;;;;;;;3.77;3.37;;;;;20.60;101084.00;;;;2071509;28;20207;-47
2021/04/18 01:54:33;;;;;;;4.13;3.30;;;;;20.80;101078.00;;;;2071222;28;20227;-47
2021/04/18 01:55:33;;;;;;;3.30;2.70;;;;;20.80;101089.00;;;;2069955;28;20253;-47
2021/04/18 01:56:34;;;;;;;3.23;2.90;;;;;20.80;101080.00;;;;2069060;28;20724;-46
2021/04/18 01:57:34;;;;;;;3.37;2.97;;;;;20.80;101084.00;;;;2070286;28;20258;-47
2021/04/18 01:58:35;;;;;;;4.13;3.67;;;;;20.80;101096.00;;;;2070427;28;20226;-47
2021/04/18 01:59:35;;;;;;;4.53;3.30;;;;;20.80;101087.00;;;;2070566;28;20230;-47
2021/04/18 02:00:35;;;;;;;3.33;3.03;;;;;20.80;101090.00;;;;2067973;28;20223;-48
2021/04/18 02:01:39;;;;;;;3.70;3.13;;;;;20.80;101093.00;;;;2070315;28;20222;-47
2021/04/18 02:02:40;;;;;;;3.40;3.10;;;;;20.80;101092.00;;;;2069410;28;20261;-47
2021/04/18 02:03:41;;;;;;;3.60;3.25;;;;;20.80;101088.00;;;;2069602;28;20267;-46
2021/04/18 02:04:41;;;;;;;4.10;3.23;;;;;20.80;101090.00;;;;2072706;28;20213;-47
2021/04/18 02:05:42;;;;;;;3.63;3.10;;;;;20.80;101086.00;;;;2077507;28;20582;-47
2021/04/18 02:06:42;;;;;;;4.10;3.30;;;;;20.80;101091.00;;;;2076897;28;20325;-46
2021/04/18 02:07:42;;;;;;;4.33;3.20;;;;;20.80;101087.00;;;;2077447;28;20221;-46
2021/04/18 02:08:43;;;;;;;3.87;3.07;;;;;20.80;101093.00;;;;2070297;28;20313;-46
2021/04/18 02:09:43;;;;;;;3.87;3.00;;;;;20.80;101087.00;;;;2070195;28;20582;-47
2021/04/18 02:10:43;;;;;;;3.70;3.20;;;;;20.70;101080.00;;;;2070279;28;20215;-47
2021/04/18 02:11:44;;;;;;;3.30;2.73;;;;;20.70;101086.00;;;;2069362;28;20302;-46
2021/04/18 02:12:44;;;;;;;3.50;3.10;;;;;20.70;101086.00;;;;2070143;28;20241;-46
2021/04/18 02:13:45;;;;;;;3.67;3.30;;;;;20.80;101085.00;;;;2070216;28;20226;-47
2021/04/18 02:14:45;;;;;;;3.37;3.07;;;;;20.70;101082.00;;;;2070126;28;20293;-47
2021/04/18 02:15:46;;;;;;;3.07;2.77;;;;;20.70;101085.00;;;;2070226;28;20215;-47
2021/04/18 02:16:46;;;;;;;3.43;3.03;;;;;20.70;101081.00;;;;2068874;28;20234;-46
2021/04/18 02:17:46;;;;;;;3.40;3.10;;;;;20.70;101087.00;;;;2070445;28;20218;-47
2021/04/18 02:18:47;;;;;;;3.57;3.27;;;;;20.70;101078.00;;;;2067969;28;20222;-47
2021/04/18 02:19:47;;;;;;;3.40;3.10;;;;;20.70;101084.00;;;;2068548;28;20720;-47
2021/04/18 02:20:47;;;;;;;4.37;3.07;;;;;20.70;101080.00;;;;2069309;28;20223;-47
2021/04/18 02:21:48;;;;;;;2.93;2.63;;;;;20.70;101081.00;;;;2069720;28;20215;-47
2021/04/18 02:22:48;;;;;;;4.17;2.90;;;;;20.70;101077.00;;;;2072163;28;20265;-47
2021/04/18 02:23:49;;;;;;;3.17;2.87;;;;;20.70;101075.00;;;;2071492;28;20238;-47
2021/04/18 02:24:49;;;;;;;4.40;3.23;;;;;20.70;101076.00;;;;2069884;28;20219;-46
2021/04/18 02:25:51;;;;;;;3.17;2.80;;;;;20.70;101073.00;;;;2069367;28;20230;-47
2021/04/18 02:26:51;;;;;;;3.80;3.10;;;;;20.70;101071.00;;;;2068665;28;20215;-47
2021/04/18 02:27:51;;;;;;;3.90;3.03;;;;;20.70;101074.00;;;;2070277;28;20210;-46
2021/04/18 02:28:52;;;;;;;3.57;3.27;;;;;20.70;101068.00;;;;2069549;28;20211;-46
2021/04/18 02:29:53;;;;;;;4.10;3.67;;;;;20.70;101070.00;;;;2070490;28;20302;-47
2021/04/18 02:30:53;;;;;;;3.67;3.37;;;;;20.70;101075.00;;;;2069836;28;20215;-46
2021/04/18 02:31:55;;;;;;;4.77;3.13;;;;;20.70;101072.00;;;;2070040;28;20454;-46
2021/04/18 02:32:55;;;;;;;3.97;3.05;;;;;20.70;101070.00;;;;2070081;28;20218;-46
2021/04/18 02:33:55;;;;;;;4.70;3.37;;;;;20.70;101067.00;;;;2070241;28;20293;-48
2021/04/18 02:34:56;;;;;;;3.70;3.40;;;;;20.70;101074.00;;;;2069910;28;20210;-47
2021/04/18 02:35:56;;;;;;;4.77;3.67;;;;;20.70;101062.00;;;;2069269;28;20221;-47
2021/04/18 02:36:56;;;;;;;3.13;2.83;;;;;20.70;101071.00;;;;2069793;28;20629;-47
2021/04/18 02:37:57;;;;;;;3.33;2.50;;;;;20.70;101076.00;;;;2069912;28;20583;-47
2021/04/18 02:38:57;;;;;;;3.20;2.90;;;;;20.70;101074.00;;;;2069893;28;20215;-46
2021/04/18 02:39:58;;;;;;;4.50;3.20;;;;;20.70;101087.00;;;;2070155;28;20267;-46
2021/04/18 02:40:58;;;;;;;3.50;3.00;;;;;20.70;101074.00;;;;2069820;28;20679;-47
2021/04/18 02:41:58;;;;;;;3.57;3.10;;;;;20.70;101076.00;;;;2069919;28;20233;-47
2021/04/18 02:42:59;;;;;;;3.67;3.30;;;;;20.70;101078.00;;;;2069602;28;20682;-47
2021/04/18 02:43:59;;;;;;;3.17;2.87;;;;;20.70;101081.00;;;;2070101;28;20791;-47
2021/04/18 02:45:00;;;;;;;3.33;2.90;;;;;20.70;101080.00;;;;2068191;28;20207;-47
2021/04/18 02:46:00;;;;;;;4.40;3.20;;;;;20.70;101075.00;;;;2068754;28;20207;-47
2021/04/18 02:47:00;;;;;;;4.20;3.40;;;;;20.70;101081.00;;;;2069505;28;20227;-46
2021/04/18 02:48:01;;;;;;;5.03;3.37;;;;;20.70;101077.00;;;;2069482;28;20575;-47
2021/04/18 02:49:02;;;;;;;3.93;3.40;;;;;20.70;101075.00;;;;2070063;28;20199;-47
2021/04/18 02:50:06;;;;;;;4.45;3.40;;;;;20.70;101087.00;;;;2076447;28;20300;-46
2021/04/18 02:51:06;;;;;;;3.55;3.25;;;;;20.70;101081.00;;;;2071009;28;20314;-48
2021/04/18 02:52:07;;;;;;;3.87;3.20;;;;;20.70;101077.00;;;;2076642;28;20221;-47
2021/04/18 02:53:07;;;;;;;3.73;2.83;;;;;20.60;101080.00;;;;2069898;28;20227;-47
2021/04/18 02:54:08;;;;;;;4.10;3.17;;;;;20.60;101081.00;;;;2071496;28;20317;-47
2021/04/18 02:55:09;;;;;;;3.27;2.77;;;;;20.60;101085.00;;;;2071402;28;20206;-47
2021/04/18 02:56:09;;;;;;;3.57;3.17;;;;;20.60;101082.00;;;;2067054;28;20242;-47
2021/04/18 02:57:09;;;;;;;3.90;3.50;;;;;20.60;101084.00;;;;2069609;28;20478;-47
2021/04/18 02:58:10;;;;;;;4.10;3.33;;;;;20.60;101078.00;;;;2069954;28;20213;-45
2021/04/18 02:59:10;;;;;;;3.80;3.33;;;;;20.60;101082.00;;;;2069916;28;20211;-47
2021/04/18 03:00:11;;;;;;;2.93;2.70;;;;;20.60;101080.00;;;;2069797;28;20230;-47
2021/04/18 03:01:11;;;;;;;4.22;3.47;;;;;20.60;101082.00;;;;2069638;28;20225;-47
2021/04/18 03:02:12;;;;;;;4.63;3.00;;;;;20.60;101081.00;;;;2069740;28;20210;-47
2021/04/18 03:03:12;;;;;;;3.70;3.33;;;;;20.60;101081.00;;;;2069749;28;20215;-47
2021/04/18 03:04:13;;;;;;;3.83;3.00;;;;;20.60;101083.00;;;;2069641;28;20678;-47
2021/04/18 03:05:13;;;;;;;4.00;3.13;;;;;20.60;101087.00;;;;2069637;28;20207;-47
2021/04/18 03:06:14;;;;;;;3.90;3.50;;;;;20.60;101087.00;;;;2069058;28;20300;-46
2021/04/18 03:07:15;;;;;;;3.75;2.60;;;;;20.60;101083.00;;;;2069598;28;20227;-47
2021/04/18 03:08:15;;;;;;;5.20;3.03;;;;;20.60;101081.00;;;;2070659;28;20809;-47
2021/04/18 03:09:16;;;;;;;5.87;3.57;;;;;20.60;101082.00;;;;2068843;28;20223;-47
2021/04/18 03:10:16;;;;;;;3.37;3.00;;;;;20.60;101085.00;;;;2070153;28;20718;-47
2021/04/18 03:11:17;;;;;;;2.93;2.70;;;;;20.60;101082.00;;;;2069505;28;20272;-46
2021/04/18 03:12:18;;;;;;;3.15;2.85;;;;;20.60;101078.00;;;;2069723;28;20292;-47
2021/04/18 03:13:18;;;;;;;3.37;3.07;;;;;20.60;101087.00;;;;2069855;28;20851;-46
2021/04/18 03:14:18;;;;;;;3.20;2.83;;;;;20.60;101078.00;;;;2069804;28;20276;-47
2021/04/18 03:15:19;;;;;;;3.33;3.03;;;;;20.60;101085.00;;;;2069707;28;20341;-46
2021/04/18 03:16:19;;;;;;;3.80;3.37;;;;;20.60;101090.00;;;;2068284;28;20213;-48
2021/04/18 03:17:20;;;;;;;3.27;2.83;;;;;20.60;101088.00;;;;2060991;28;20240;-46
2021/04/18 03:18:20;;;;;;;3.60;2.87;;;;;20.60;101079.00;;;;2069196;28;20219;-47
2021/04/18 03:19:20;;;;;;;3.50;2.90;;;;;20.60;101093.00;;;;2069473;28;20212;-47
2021/04/18 03:20:21;;;;;;;3.57;3.27;;;;;20.60;101039.00;;;;2068326;28;20219;-47
2021/04/18 03:21:21;;;;;;;4.30;2.83;;;;;20.60;101077.00;;;;2069669;28;20624;-47
2021/04/18 03:22:21;;;;;;;3.50;2.97;;;;;20.60;101085.00;;;;2070321;28;20211;-47
2021/04/18 03:23:22;;;;;;;7.03;3.27;;;;;20.60;101087.00;;;;2073225;28;20293;-46
2021/04/18 03:24:22;;;;;;;4.20;3.20;;;;;20.60;101071.00;;;;2072852;28;20214;-47
2021/04/18 03:25:23;;;;;;;4.10;3.30;;;;;20.60;101072.00;;;;2069665;28;20288;-46
2021/04/18 03:26:23;;;;;;;5.47;3.33;;;;;20.60;101076.00;;;;2068619;28;20653;-46
2021/04/18 03:27:23;;;;;;;3.47;2.57;;;;;20.60;101072.00;;;;2069418;28;20235;-47
2021/04/18 03:28:24;;;;;;;3.30;3.00;;;;;20.60;101074.00;;;;2069641;28;20274;-47
2021/04/18 03:29:24;;;;;;;5.33;3.20;;;;;20.60;101075.00;;;;2069874;28;20285;-47
2021/04/18 03:30:24;;;;;;;3.53;2.70;;;;;20.60;101071.00;;;;2078025;28;20225;-46
2021/04/18 03:31:25;;;;;;;3.73;3.10;;;;;20.50;101075.00;;;;2077741;28;20652;-46
2021/04/18 03:32:25;;;;;;;3.60;3.30;;;;;20.60;101075.00;;;;2076124;28;20218;-46
2021/04/18 03:33:26;;;;;;;3.37;3.07;;;;;20.60;101074.00;;;;2069848;28;20214;-47
2021/04/18 03:34:26;;;;;;;3.07;2.77;;;;;20.60;101071.00;;;;2069911;28;20226;-46
2021/04/18 03:35:26;;;;;;;5.53;3.57;;;;;20.50;101072.00;;;;2069655;28;20222;-46
2021/04/18 03:36:27;;;;;;;4.30;3.30;;;;;20.60;101073.00;;;;2068347;28;20238;-47
2021/04/18 03:37:27;;;;;;;3.67;2.87;;;;;20.50;101074.00;;;;2069206;28;20227;-47
2021/04/18 03:38:27;;;;;;;3.80;3.40;;;;;20.60;101075.00;;;;2069698;28;20223;-47
2021/04/18 03:39:28;;;;;;;4.07;3.20;;;;;20.50;101070.00;;;;2069032;28;20305;-47
2021/04/18 03:40:29;;;;;;;4.00;3.10;;;;;20.50;101070.00;;;;2075797;28;20225;-47
2021/04/18 03:41:29;;;;;;;4.18;2.90;;;;;20.50;101071.00;;;;2077377;28;20230;-47
2021/04/18 03:42:29;;;;;;;3.33;2.83;;;;;20.50;101073.00;;;;2077879;28;20221;-46
2021/04/18 03:43:30;;;;;;;5.17;3.20;;;;;20.50;101019.00;;;;2077643;28;20741;-48
2021/04/18 03:44:30;;;;;;;3.00;2.80;;;;;20.50;101070.00;;;;2077385;28;20760;-47
2021/04/18 03:45:30;;;;;;;3.97;3.00;;;;;20.50;101071.00;;;;2077531;28;20218;-46
2021/04/18 03:46:31;;;;;;;3.10;2.80;;;;;20.50;101066.00;;;;2076281;28;20210;-49
2021/04/18 03:47:31;;;;;;;3.53;2.77;;;;;20.50;101063.00;;;;2077150;28;20221;-49
2021/04/18 03:48:31;;;;;;;3.13;2.70;;;;;20.50;101060.00;;;;2076829;28;20206;-48
2021/04/18 03:49:32;;;;;;;3.47;3.17;;;;;20.50;101071.00;;;;2077570;28;20210;-47
2021/04/18 03:50:32;;;;;;;3.30;3.00;;;;;20.50;101067.00;;;;2074298;28;20222;-48
2021/04/18 03:51:32;;;;;;;3.87;3.10;;;;;20.50;101067.00;;;;2076913;28;20223;-47
2021/04/18 03:52:33;;;;;;;3.83;2.77;;;;;20.50;101064.00;;;;2077096;28;20304;-47
2021/04/18 03:53:33;;;;;;;3.27;2.63;;;;;20.50;101071.00;;;;2075081;28;20221;-48
2021/04/18 03:54:34;;;;;;;3.07;2.77;;;;;20.50;101067.00;;;;2071232;28;20301;-48
2021/04/18 03:55:34;;;;;;;3.87;3.50;;;;;20.50;101068.00;;;;2069526;28;20234;-49
2021/04/18 03:56:34;;;;;;;5.10;2.90;;;;;20.50;101064.00;;;;2068551;28;20338;-49
2021/04/18 03:57:35;;;;;;;3.60;2.97;;;;;20.50;101067.00;;;;2068604;28;20301;-49
2021/04/18 03:58:35;;;;;;;3.00;2.80;;;;;20.50;101062.00;;;;2068829;28;20222;-48
2021/04/18 03:59:35;;;;;;;3.07;2.77;;;;;20.50;101063.00;;;;2069023;28;20305;-49
2021/04/18 04:00:36;;;;;;;3.33;3.03;;;;;20.50;101064.00;;;;2065500;28;20227;-48
2021/04/18 04:01:36;;;;;;;3.73;3.10;;;;;20.50;101068.00;;;;2069228;28;20218;-49
2021/04/18 04:02:37;;;;;;;3.23;2.93;;;;;20.50;101068.00;;;;2069476;28;20310;-49
2021/04/18 04:03:37;;;;;;;3.20;2.87;;;;;20.50;101061.00;;;;2068590;28;20301;-49
2021/04/18 04:04:37;;;;;;;3.73;3.17;;;;;20.50;101062.00;;;;2069305;28;20268;-49
2021/04/18 04:05:38;;;;;;;3.33;2.70;;;;;20.50;101050.00;;;;2069220;28;20225;-49
2021/04/18 04:06:38;;;;;;;2.83;2.50;;;;;20.50;101062.00;;;;2068387;28;20226;-48
2021/04/18 04:07:39;;;;;;;3.83;2.80;;;;;20.50;101056.00;;;;2072062;28;20210;-50
2021/04/18 04:08:39;;;;;;;5.07;3.27;;;;;20.50;101056.00;;;;2070255;28;20203;-49
2021/04/18 04:09:39;;;;;;;3.10;2.80;;;;;20.40;101056.00;;;;2069165;28;20218;-48
2021/04/18 04:10:40;;;;;;;2.90;2.60;;;;;20.50;101063.00;;;;2066145;28;20246;-48
2021/04/18 04:11:41;;;;;;;3.30;3.00;;;;;20.40;101061.00;;;;2076798;28;20748;-48
2021/04/18 04:12:41;;;;;;;3.13;2.67;;;;;20.40;101071.00;;;;2070979;28;20210;-49
2021/04/18 04:13:42;;;;;;;3.90;2.83;;;;;20.40;101056.00;;;;2072990;28;20210;-48
2021/04/18 04:14:42;;;;;;;3.33;3.03;;;;;20.40;101070.00;;;;2073338;28;20203;-49
2021/04/18 04:15:42;;;;;;;3.40;3.03;;;;;20.50;101067.00;;;;2069318;28;20273;-49
2021/04/18 04:16:43;;;;;;;3.53;2.83;;;;;20.40;101062.00;;;;2067378;28;20324;-49
2021/04/18 04:17:43;;;;;;;3.20;2.87;;;;;20.40;101056.00;;;;2069223;28;20219;-49
2021/04/18 04:18:43;;;;;;;3.50;3.07;;;;;20.40;101060.00;;;;2068159;28;20210;-49
2021/04/18 04:19:44;;;;;;;3.60;2.97;;;;;20.40;101058.00;;;;2069242;28;20211;-48
2021/04/18 04:20:44;;;;;;;3.30;3.00;;;;;20.40;101060.00;;;;2069655;28;20215;-49
2021/04/18 04:21:44;;;;;;;3.47;3.07;;;;;20.40;101062.00;;;;2069246;28;20222;-49
2021/04/18 04:22:45;;;;;;;3.60;3.27;;;;;20.40;101061.00;;;;2068700;28;20213;-50
2021/04/18 04:23:45;;;;;;;3.70;3.30;;;;;20.40;101061.00;;;;2069083;28;20298;-49
2021/04/18 04:24:47;;;;;;;3.70;2.87;;;;;20.40;101058.00;;;;2069373;28;20729;-49
2021/04/18 04:25:47;;;;;;;3.42;3.13;;;;;20.40;101061.00;;;;2068819;28;20242;-49
2021/04/18 04:26:47;;;;;;;3.60;3.23;;;;;20.40;101062.00;;;;2068728;28;20222;-49
2021/04/18 04:27:48;;;;;;;3.63;3.10;;;;;20.40;101059.00;;;;2069123;28;20313;-49
2021/04/18 04:28:48;;;;;;;3.27;2.97;;;;;20.40;101063.00;;;;2069468;28;20349;-48
2021/04/18 04:29:48;;;;;;;3.73;3.20;;;;;20.40;101058.00;;;;2069507;28;20222;-49
2021/04/18 04:30:49;;;;;;;3.43;3.00;;;;;20.40;101066.00;;;;2060779;28;20409;-49
2021/04/18 04:31:49;;;;;;;3.70;3.30;;;;;20.40;101058.00;;;;2082620;28;20565;-49
2021/04/18 04:32:50;;;;;;;3.77;3.27;;;;;20.40;101064.00;;;;2083480;28;20221;-49
2021/04/18 04:33:50;;;;;;;3.33;3.03;;;;;20.40;101068.00;;;;2077523;28;20206;-49
2021/04/18 04:34:50;;;;;;;3.53;3.17;;;;;20.40;101064.00;;;;2076936;28;20217;-49
2021/04/18 04:35:51;;;;;;;4.60;3.50;;;;;20.40;101049.00;;;;2077149;28;20317;-49
2021/04/18 04:36:51;;;;;;;3.87;3.47;;;;;20.40;101055.00;;;;2075997;28;20206;-49
2021/04/18 04:37:51;;;;;;;3.33;3.03;;;;;20.40;101059.00;;;;2076267;28;20247;-49
2021/04/18 04:38:52;;;;;;;3.33;2.97;;;;;20.40;101060.00;;;;2077372;28;20206;-49
2021/04/18 04:39:52;;;;;;;3.40;3.10;;;;;20.40;101060.00;;;;2077455;28;20230;-49
2021/04/18 04:40:52;;;;;;;3.73;3.40;;;;;20.40;101059.00;;;;2076671;28;20217;-49
2021/04/18 04:41:53;;;;;;;4.20;3.50;;;;;20.40;101049.00;;;;2077002;28;20321;-48
2021/04/18 04:42:53;;;;;;;4.30;3.20;;;;;20.40;101052.00;;;;2077444;28;20214;-48
2021/04/18 04:43:54;;;;;;;4.67;3.00;;;;;20.40;101052.00;;;;2072258;28;20210;-49
2021/04/18 04:44:54;;;;;;;4.17;3.77;;;;;20.40;101048.00;;;;2064114;28;20222;-49
2021/04/18 04:45:54;;;;;;;3.73;3.03;;;;;20.40;101058.00;;;;2068362;28;20215;-49
2021/04/18 04:46:55;;;;;;;4.00;3.60;;;;;20.40;101058.00;;;;2069246;28;20222;-48
2021/04/18 04:47:55;;;;;;;4.27;3.20;;;;;20.40;101067.00;;;;2068909;28;20261;-48
2021/04/18 04:48:56;;;;;;;4.53;3.40;;;;;20.20;101063.00;;;;2070439;28;20465;-49
2021/04/18 04:49:57;;;;;;;4.30;3.57;;;;;20.30;101062.00;;;;2064012;28;20295;-49
2021/04/18 04:50:57;;;;;;;3.80;3.40;;;;;20.30;101062.00;;;;2078193;28;20229;-49
2021/04/18 04:51:57;;;;;;;3.50;3.10;;;;;20.40;101070.00;;;;2078277;28;20464;-49
2021/04/18 04:52:58;;;;;;;4.33;3.70;;;;;20.20;101052.00;;;;2079042;28;20217;-49
2021/04/18 04:53:58;;;;;;;4.30;3.90;;;;;20.40;101057.00;;;;2078949;28;20240;-49
2021/04/18 04:54:58;;;;;;;3.80;3.50;;;;;20.40;101059.00;;;;2077716;28;20284;-49
2021/04/18 04:55:59;;;;;;;5.53;3.87;;;;;20.40;101062.00;;;;2077556;28;20289;-49
2021/04/18 04:56:59;;;;;;;4.00;3.60;;;;;20.30;101059.00;;;;2078742;28;20222;-49
2021/04/18 04:57:59;;;;;;;3.70;3.40;;;;;20.30;101067.00;;;;2078785;28;20590;-47
2021/04/18 04:59:00;;;;;;;3.77;3.47;;;;;20.30;101055.00;;;;2078390;28;20283;-49
2021/04/18 05:00:00;;;;;;;4.60;3.70;;;;;20.40;101061.00;;;;2078303;28;20218;-49